Time;durP1;ratioP1;P1;durP2;ratioP2;P2;SDS_P1;SDS_P2;PMS_P1;PMS_P2;Temp;Humidity;BMP_temperature;BMP_pressure;BME280_temperature;BME280_humidity;BME280_pressure;Samples;Min_cycle;Max_cycle;Signal;HPM_P1;HPM_P2
2022/11/12 00:01:30;;;;;;;85.30;35.50;;;6.80;99.90;;;;;;5078353;28;20052;-77
2022/11/12 00:04:16;;;;;;;92.30;35.47;;;6.80;99.90;;;;;;5075324;28;20077;-76
2022/11/12 00:07:02;;;;;;;90.97;38.67;;;6.80;99.90;;;;;;5072903;28;20094;-76
2022/11/12 00:09:47;;;;;;;103.85;41.97;;;6.80;99.90;;;;;;5077715;28;20063;-76
2022/11/12 00:12:35;;;;;;;114.75;48.15;;;6.80;99.90;;;;;;5079573;28;20055;-76
2022/11/12 00:15:20;;;;;;;107.50;47.25;;;6.80;99.90;;;;;;5077969;28;20534;-76
2022/11/12 00:18:06;;;;;;;114.18;47.83;;;6.80;99.90;;;;;;5077821;28;23207;-76
2022/11/12 00:20:52;;;;;;;117.65;50.83;;;6.80;99.90;;;;;;5075713;28;21668;-76
2022/11/12 00:23:38;;;;;;;114.40;48.25;;;6.80;99.90;;;;;;5075795;28;20058;-77
2022/11/12 00:26:23;;;;;;;119.28;49.30;;;6.80;99.90;;;;;;5074289;28;20055;-77
2022/11/12 00:29:09;;;;;;;115.80;47.55;;;6.90;99.90;;;;;;5074780;28;20067;-76
2022/11/12 00:31:55;;;;;;;151.07;55.65;;;6.90;99.90;;;;;;5076398;28;20066;-77
2022/11/12 00:34:40;;;;;;;132.98;55.60;;;6.80;99.90;;;;;;5075020;28;20097;-77
2022/11/12 00:37:26;;;;;;;127.38;55.78;;;6.90;99.90;;;;;;5079573;28;20518;-77
2022/11/12 00:40:11;;;;;;;140.63;56.40;;;6.80;99.90;;;;;;5073632;28;20407;-77
2022/11/12 00:42:57;;;;;;;130.98;53.50;;;6.80;99.90;;;;;;5072433;28;20047;-77
2022/11/12 00:45:43;;;;;;;118.43;49.53;;;6.80;99.90;;;;;;5078073;28;20063;-77
2022/11/12 00:48:28;;;;;;;111.57;49.58;;;6.90;99.90;;;;;;5079541;28;20047;-77
2022/11/12 00:51:14;;;;;;;102.07;46.58;;;6.80;99.90;;;;;;5078883;28;20055;-77
2022/11/12 00:54:00;;;;;;;103.68;45.33;;;6.90;99.90;;;;;;5078619;28;20174;-77
2022/11/12 00:56:46;;;;;;;107.18;47.55;;;6.80;99.90;;;;;;5077101;28;20059;-77
2022/11/12 00:59:32;;;;;;;120.15;51.15;;;6.90;99.90;;;;;;5073949;28;20047;-77
2022/11/12 01:02:19;;;;;;;120.40;47.05;;;6.80;99.90;;;;;;5076019;28;20058;-77
2022/11/12 01:05:05;;;;;;;119.35;49.80;;;6.90;99.90;;;;;;5072519;28;20125;-77
2022/11/12 01:07:51;;;;;;;108.35;46.78;;;6.90;99.90;;;;;;5072176;28;20164;-77
2022/11/12 01:10:40;;;;;;;114.03;46.95;;;6.80;99.90;;;;;;5072807;28;20063;-77
2022/11/12 01:13:26;;;;;;;105.15;46.80;;;6.90;99.90;;;;;;5080587;28;21121;-77
2022/11/12 01:16:21;;;;;;;107.25;47.75;;;6.90;99.90;;;;;;5075156;28;20076;-77
2022/11/12 01:19:09;;;;;;;111.57;47.58;;;6.90;99.90;;;;;;5074955;28;20538;-77
2022/11/12 01:21:58;;;;;;;99.82;45.92;;;6.90;99.90;;;;;;5081969;28;20166;-77
2022/11/12 01:24:43;;;;;;;104.97;43.80;;;6.90;99.90;;;;;;5081381;28;20054;-77
2022/11/12 01:27:29;;;;;;;105.55;44.97;;;6.90;99.90;;;;;;5071572;28;20542;-77
2022/11/12 01:30:17;;;;;;;98.25;42.70;;;6.90;99.90;;;;;;5077356;28;20067;-77
2022/11/12 01:33:03;;;;;;;107.40;45.38;;;6.90;99.90;;;;;;5075789;28;20118;-77
2022/11/12 01:35:49;;;;;;;94.90;43.30;;;6.90;99.90;;;;;;5076313;28;20222;-77
2022/11/12 01:38:36;;;;;;;100.90;41.65;;;6.90;99.90;;;;;;5077335;28;20043;-77
2022/11/12 01:41:25;;;;;;;85.88;38.60;;;6.90;99.90;;;;;;5072668;28;20089;-77
2022/11/12 01:44:16;;;;;;;74.03;36.25;;;6.90;99.90;;;;;;5073345;28;20418;-77
2022/11/12 01:47:20;;;;;;;81.60;36.45;;;6.90;99.90;;;;;;5072735;28;20055;-77
2022/11/12 01:50:14;;;;;;;87.43;38.40;;;6.90;99.90;;;;;;5083293;28;20055;-77
2022/11/12 01:53:05;;;;;;;78.75;36.35;;;6.80;99.90;;;;;;5073453;28;20522;-77
2022/11/12 01:55:51;;;;;;;78.30;33.35;;;6.90;99.90;;;;;;5078123;28;20052;-77
2022/11/12 01:58:39;;;;;;;69.72;32.35;;;6.90;99.90;;;;;;5076155;28;20046;-77
2022/11/12 02:01:25;;;;;;;70.82;32.95;;;6.80;99.90;;;;;;5075543;28;20055;-77
2022/11/12 02:04:11;;;;;;;65.40;29.98;;;6.80;99.90;;;;;;5077985;28;20055;-77
2022/11/12 02:06:58;;;;;;;67.80;30.63;;;6.80;99.90;;;;;;5076433;28;20072;-77
2022/11/12 02:09:43;;;;;;;72.25;30.63;;;6.80;99.90;;;;;;5079549;28;20081;-77
2022/11/12 02:15:33;;;;;;;65.18;28.55;;;6.70;99.90;;;;;;5076593;28;20043;-77
2022/11/12 02:18:19;;;;;;;56.63;26.80;;;6.70;99.90;;;;;;5075443;28;20050;-76
2022/11/12 02:21:07;;;;;;;61.55;28.67;;;6.70;99.90;;;;;;5079898;28;20191;-77
2022/11/12 02:24:12;;;;;;;59.22;27.30;;;6.70;99.90;;;;;;5084137;28;20051;-77
2022/11/12 02:26:58;;;;;;;61.90;30.23;;;6.70;99.90;;;;;;5081793;28;20043;-77
2022/11/12 02:29:46;;;;;;;54.75;25.85;;;6.70;99.90;;;;;;5078644;28;21373;-77
2022/11/12 02:32:31;;;;;;;59.67;26.40;;;6.70;99.90;;;;;;5079296;28;20502;-77
2022/11/12 02:35:17;;;;;;;61.58;28.55;;;6.60;99.90;;;;;;5077035;28;20054;-77
2022/11/12 02:38:04;;;;;;;70.15;29.60;;;6.70;99.90;;;;;;5080909;28;20086;-77
2022/11/12 02:40:51;;;;;;;63.25;28.95;;;6.70;99.90;;;;;;5079342;28;20760;-77
2022/11/12 02:43:36;;;;;;;66.20;29.92;;;6.60;99.90;;;;;;5080870;28;20047;-77
2022/11/12 02:46:22;;;;;;;64.88;28.42;;;6.60;99.90;;;;;;5082588;28;20521;-77
2022/11/12 02:49:07;;;;;;;67.07;29.10;;;6.60;99.90;;;;;;5080633;28;20124;-77
2022/11/12 02:51:53;;;;;;;62.83;28.42;;;6.60;99.90;;;;;;5076931;28;20097;-76
2022/11/12 02:54:38;;;;;;;63.35;30.60;;;6.60;99.90;;;;;;5076105;28;20051;-76
2022/11/12 02:57:24;;;;;;;69.70;30.15;;;6.60;99.90;;;;;;5075645;28;20047;-76
2022/11/12 03:00:12;;;;;;;69.40;29.98;;;6.60;99.90;;;;;;5079610;28;20130;-77
2022/11/12 03:03:00;;;;;;;65.65;30.80;;;6.70;99.90;;;;;;5075188;28;20047;-77
2022/11/12 03:05:55;;;;;;;72.15;30.73;;;6.70;99.90;;;;;;5074958;28;20048;-77
2022/11/12 03:08:41;;;;;;;69.32;29.90;;;6.70;99.90;;;;;;5080852;28;20431;-77
2022/11/12 03:11:27;;;;;;;72.10;31.70;;;6.70;99.90;;;;;;5075418;28;20093;-77
2022/11/12 03:14:12;;;;;;;70.07;30.95;;;6.70;99.90;;;;;;5077092;28;20530;-77
2022/11/12 03:16:58;;;;;;;71.72;31.77;;;6.70;99.90;;;;;;5074632;28;20056;-77
2022/11/12 03:19:43;;;;;;;63.97;30.50;;;6.70;99.90;;;;;;5076864;28;20510;-77
2022/11/12 03:22:29;;;;;;;67.03;29.40;;;6.70;99.90;;;;;;5075520;28;20052;-77
2022/11/12 03:25:14;;;;;;;63.25;28.55;;;6.70;99.90;;;;;;5075236;28;20047;-77
2022/11/12 03:28:03;;;;;;;59.00;26.17;;;6.70;99.90;;;;;;5076046;28;20050;-77
2022/11/12 03:30:49;;;;;;;53.25;24.08;;;6.70;99.90;;;;;;5081859;28;20136;-77
2022/11/12 03:33:34;;;;;;;54.95;24.50;;;6.70;99.90;;;;;;5074860;28;20184;-77
2022/11/12 03:36:20;;;;;;;44.53;22.13;;;6.70;99.90;;;;;;5078904;28;20051;-77
2022/11/12 03:39:05;;;;;;;53.50;23.88;;;6.70;99.90;;;;;;5081014;28;20059;-77
2022/11/12 03:41:51;;;;;;;56.00;26.33;;;6.70;99.90;;;;;;5074079;28;20042;-77
2022/11/12 03:44:37;;;;;;;55.83;25.00;;;6.70;99.90;;;;;;5073716;28;20580;-77
2022/11/12 03:47:22;;;;;;;58.60;26.20;;;6.70;99.90;;;;;;5080406;28;20158;-77
2022/11/12 03:50:09;;;;;;;51.47;24.50;;;6.70;99.90;;;;;;5083672;28;20055;-76
2022/11/12 03:52:57;;;;;;;57.70;25.70;;;6.70;99.90;;;;;;5080628;28;20051;-77
2022/11/12 03:55:42;;;;;;;52.17;23.88;;;6.70;99.90;;;;;;5078234;28;20047;-77
2022/11/12 03:58:28;;;;;;;53.53;24.25;;;6.70;99.90;;;;;;5077232;28;20047;-77
2022/11/12 04:01:14;;;;;;;54.10;25.95;;;6.70;99.90;;;;;;5080833;28;20046;-77
2022/11/12 04:03:59;;;;;;;58.75;24.40;;;6.70;99.90;;;;;;5075710;28;20051;-77
2022/11/12 04:09:49;;;;;;;50.63;24.13;;;6.60;99.90;;;;;;5073387;28;20545;-77
2022/11/12 04:15:39;;;;;;;52.25;24.15;;;6.60;99.90;;;;;;5078245;28;20055;-76
2022/11/12 04:21:49;;;;;;;47.53;24.02;;;6.60;99.90;;;;;;5079846;28;20986;-77
2022/11/12 04:27:43;;;;;;;53.53;24.73;;;6.50;99.90;;;;;;5078354;28;20120;-77
2022/11/12 04:30:29;;;;;;;58.30;26.52;;;6.50;99.90;;;;;;5077890;28;20047;-77
2022/11/12 04:33:17;;;;;;;64.47;27.05;;;6.50;99.90;;;;;;5078172;28;20549;-77
2022/11/12 04:36:03;;;;;;;60.50;28.35;;;6.50;99.90;;;;;;5077046;28;20048;-77
2022/11/12 04:38:49;;;;;;;66.65;27.70;;;6.40;99.90;;;;;;5076182;28;20059;-77
2022/11/12 04:47:45;;;;;;;69.38;30.50;;;6.40;99.90;;;;;;5075192;28;20059;-77
2022/11/12 04:50:31;;;;;;;77.65;30.65;;;6.40;99.90;;;;;;5073902;28;20518;-77
2022/11/12 04:53:17;;;;;;;65.25;29.55;;;6.30;99.90;;;;;;5073302;28;20054;-77
2022/11/12 04:56:02;;;;;;;67.57;30.27;;;6.30;99.90;;;;;;5077870;28;20419;-77
2022/11/12 04:58:48;;;;;;;67.47;30.48;;;6.30;99.90;;;;;;5075734;28;20406;-77
2022/11/12 05:01:34;;;;;;;75.95;32.08;;;6.30;99.90;;;;;;5082301;28;20058;-77
2022/11/12 05:04:21;;;;;;;68.10;30.25;;;6.20;99.90;;;;;;5074382;28;20264;-77
2022/11/12 05:07:07;;;;;;;75.85;33.35;;;6.30;99.90;;;;;;5080041;28;20051;-77
2022/11/12 05:09:54;;;;;;;81.32;34.65;;;6.20;99.90;;;;;;5079776;28;20063;-77
2022/11/12 05:12:41;;;;;;;93.43;37.60;;;6.20;99.90;;;;;;5073557;28;20066;-77
2022/11/12 05:15:26;;;;;;;91.47;36.25;;;6.20;99.90;;;;;;5078204;28;20101;-77
2022/11/12 05:18:12;;;;;;;88.70;38.67;;;6.20;99.90;;;;;;5078942;28;20508;-77
2022/11/12 05:22:03;;;;;;;90.13;38.08;;;6.10;99.90;;;;;;5079926;28;20113;-77
2022/11/12 05:24:03;;;;;;;86.50;36.45;;;6.20;99.90;;;;;;5077182;28;20094;-77
2022/11/12 05:26:49;;;;;;;106.63;39.83;;;6.20;99.90;;;;;;5075841;28;20077;-76
2022/11/12 05:29:35;;;;;;;90.55;38.08;;;6.20;99.90;;;;;;5079773;28;20055;-76
2022/11/12 05:32:20;;;;;;;101.10;39.22;;;6.20;99.90;;;;;;5075040;28;20059;-76
2022/11/12 05:35:06;;;;;;;101.65;42.85;;;6.20;99.90;;;;;;5081747;28;20636;-76
2022/11/12 05:37:52;;;;;;;113.53;43.65;;;6.20;99.90;;;;;;5075884;28;20092;-76
2022/11/12 05:40:37;;;;;;;112.40;47.55;;;6.20;99.90;;;;;;5080901;28;20100;-76
2022/11/12 05:43:23;;;;;;;119.90;48.78;;;6.20;99.90;;;;;;5076091;28;20071;-76
2022/11/12 05:46:11;;;;;;;101.30;44.25;;;6.20;99.90;;;;;;5080941;28;20137;-76
2022/11/12 05:48:57;;;;;;;101.57;42.28;;;6.20;99.90;;;;;;5082709;28;20058;-77
2022/11/12 05:51:43;;;;;;;95.75;39.88;;;6.20;99.90;;;;;;5082656;28;20094;-77
2022/11/12 05:54:29;;;;;;;103.72;40.33;;;6.30;99.90;;;;;;5079430;28;20098;-77
2022/11/12 05:57:14;;;;;;;96.45;38.65;;;6.20;99.90;;;;;;5078414;28;20399;-77
2022/11/12 05:59:59;;;;;;;91.40;40.30;;;6.20;99.90;;;;;;5080781;28;20561;-77
2022/11/12 06:02:45;;;;;;;98.68;39.35;;;6.30;99.90;;;;;;5081811;28;20524;-77
2022/11/12 06:05:32;;;;;;;103.90;40.90;;;6.20;99.90;;;;;;5079953;28;20414;-77
2022/11/12 06:08:18;;;;;;;96.15;39.20;;;6.30;99.90;;;;;;5076509;28;20051;-77
2022/11/12 06:11:04;;;;;;;80.32;34.67;;;6.30;99.90;;;;;;5075986;28;20047;-77
2022/11/12 06:13:49;;;;;;;83.03;35.30;;;6.30;99.90;;;;;;5080598;28;20051;-77
2022/11/12 06:16:34;;;;;;;85.80;35.75;;;6.30;99.90;;;;;;5078558;28;20055;-77
2022/11/12 06:19:20;;;;;;;84.55;33.42;;;6.40;99.90;;;;;;5079620;28;20407;-77
2022/11/12 06:22:06;;;;;;;91.45;35.45;;;6.40;99.90;;;;;;5076840;28;20525;-77
2022/11/12 06:24:54;;;;;;;72.90;31.92;;;6.40;99.90;;;;;;5077553;28;20048;-77
2022/11/12 06:27:40;;;;;;;78.38;34.08;;;6.40;99.90;;;;;;5077829;28;20048;-77
2022/11/12 06:30:26;;;;;;;79.95;34.95;;;6.50;99.90;;;;;;5078187;28;20077;-77
2022/11/12 06:33:11;;;;;;;83.78;37.83;;;6.50;99.90;;;;;;5076468;28;20046;-77
2022/11/12 06:36:02;;;;;;;99.13;38.50;;;6.50;99.90;;;;;;5079078;28;20056;-77
2022/11/12 06:38:48;;;;;;;93.35;40.33;;;6.60;99.90;;;;;;5078761;28;20046;-77
2022/11/12 06:41:34;;;;;;;94.60;39.58;;;6.50;99.90;;;;;;5078696;28;20489;-77
2022/11/12 06:44:19;;;;;;;82.30;36.60;;;6.60;99.90;;;;;;5080189;28;20047;-77
2022/11/12 06:47:06;;;;;;;85.25;37.65;;;6.60;99.90;;;;;;5079970;28;20106;-77
2022/11/12 06:49:52;;;;;;;95.15;42.53;;;6.70;99.90;;;;;;5074726;28;20193;-77
2022/11/12 06:52:37;;;;;;;84.25;38.22;;;6.70;99.90;;;;;;5078105;28;20085;-77
2022/11/12 06:55:23;;;;;;;92.25;42.92;;;6.80;99.90;;;;;;5079997;28;20157;-77
2022/11/12 06:58:08;;;;;;;102.85;43.20;;;6.90;99.90;;;;;;5083659;28;20129;-77
2022/11/12 07:00:54;;;;;;;107.78;42.83;;;6.90;99.90;;;;;;5075732;28;20064;-78
2022/11/12 07:03:41;;;;;;;97.82;42.65;;;7.00;99.90;;;;;;5074934;28;20596;-79
2022/11/12 07:06:27;;;;;;;90.63;39.80;;;7.00;99.90;;;;;;5079961;28;20055;-79
2022/11/12 07:09:12;;;;;;;93.65;41.65;;;7.00;99.90;;;;;;5075132;28;20050;-79
2022/11/12 07:11:58;;;;;;;88.93;41.22;;;7.00;99.90;;;;;;5076071;28;20075;-79
2022/11/12 07:14:43;;;;;;;74.72;33.45;;;7.10;99.90;;;;;;5074225;28;20056;-79
2022/11/12 07:17:29;;;;;;;72.82;32.55;;;7.10;99.90;;;;;;5074966;28;20505;-79
2022/11/12 07:20:15;;;;;;;71.55;33.13;;;7.20;99.90;;;;;;5071216;28;20166;-79
2022/11/12 07:23:01;;;;;;;69.20;31.05;;;7.20;99.90;;;;;;5072326;28;20047;-79
2022/11/12 07:25:46;;;;;;;63.13;31.38;;;7.30;99.90;;;;;;5075990;28;20058;-79
2022/11/12 07:28:32;;;;;;;74.82;34.28;;;7.30;99.90;;;;;;5076461;28;20133;-79
2022/11/12 07:31:19;;;;;;;69.35;33.03;;;7.40;99.90;;;;;;5075530;28;20059;-79
2022/11/12 07:34:05;;;;;;;76.10;33.78;;;7.50;99.90;;;;;;5075159;28;20051;-79
2022/11/12 07:36:50;;;;;;;72.15;31.10;;;7.60;99.90;;;;;;5078322;28;20505;-79
2022/11/12 07:39:35;;;;;;;69.25;31.58;;;7.60;99.90;;;;;;5073869;28;20101;-79
2022/11/12 07:42:21;;;;;;;75.15;33.95;;;7.70;99.90;;;;;;5075197;28;20048;-79
2022/11/12 07:45:07;;;;;;;70.93;31.55;;;7.70;99.90;;;;;;5080535;28;20671;-79
2022/11/12 07:47:53;;;;;;;68.75;30.33;;;7.70;99.90;;;;;;5076859;28;20051;-79
2022/11/12 07:50:39;;;;;;;61.70;27.45;;;7.70;99.90;;;;;;5077441;28;20055;-79
2022/11/12 07:53:24;;;;;;;60.20;29.83;;;7.70;99.90;;;;;;5078579;28;20121;-79
2022/11/12 07:56:22;;;;;;;64.68;30.08;;;7.70;99.90;;;;;;5073794;28;20170;-79
2022/11/12 07:59:08;;;;;;;66.03;31.90;;;7.70;99.90;;;;;;5076342;28;20051;-79
2022/11/12 08:01:54;;;;;;;70.05;30.55;;;7.70;99.90;;;;;;5073793;28;20505;-79
2022/11/12 08:04:39;;;;;;;67.50;29.90;;;7.80;99.90;;;;;;5079959;28;20170;-79
2022/11/12 08:07:25;;;;;;;67.82;30.58;;;7.90;99.90;;;;;;5081859;28;20048;-79
2022/11/12 08:10:11;;;;;;;68.22;30.52;;;8.00;99.90;;;;;;5074612;28;20052;-79
2022/11/12 08:12:56;;;;;;;71.10;29.52;;;8.10;99.90;;;;;;5080492;28;20986;-79
2022/11/12 08:15:42;;;;;;;69.07;29.73;;;8.30;99.90;;;;;;5088132;28;20047;-79
2022/11/12 08:18:35;;;;;;;59.58;27.20;;;8.60;99.90;;;;;;5081313;28;20052;-79
2022/11/12 08:21:21;;;;;;;61.90;27.27;;;8.70;99.90;;;;;;5077550;28;20055;-79
2022/11/12 08:24:06;;;;;;;66.25;28.75;;;8.80;99.90;;;;;;5079084;28;20048;-79
2022/11/12 08:26:52;;;;;;;66.55;27.55;;;8.80;99.90;;;;;;5074197;28;20513;-79
2022/11/12 08:29:37;;;;;;;64.63;27.42;;;8.80;99.90;;;;;;5075927;28;20075;-79
2022/11/12 08:32:23;;;;;;;65.28;26.88;;;8.90;99.90;;;;;;5073422;28;20581;-80
2022/11/12 08:35:09;;;;;;;55.83;26.23;;;8.90;99.90;;;;;;5072639;28;20059;-80
2022/11/12 08:37:59;;;;;;;61.80;27.42;;;8.90;99.90;;;;;;5080816;28;20431;-80
2022/11/12 08:40:46;;;;;;;65.28;27.75;;;8.90;99.90;;;;;;5077217;28;20044;-80
2022/11/12 08:43:31;;;;;;;58.47;26.30;;;9.00;99.90;;;;;;5075470;28;20391;-79
2022/11/12 08:46:17;;;;;;;58.33;25.27;;;9.10;99.90;;;;;;5071808;28;20175;-79
2022/11/12 08:49:03;;;;;;;57.65;26.10;;;9.10;99.90;;;;;;5070506;28;20048;-80
2022/11/12 08:51:48;;;;;;;58.15;26.40;;;9.10;99.90;;;;;;5083003;28;20889;-80
2022/11/12 08:54:34;;;;;;;56.88;24.83;;;9.20;99.90;;;;;;5072570;28;20093;-80
2022/11/12 08:57:20;;;;;;;59.03;25.02;;;9.20;99.90;;;;;;5077287;28;20060;-80
2022/11/12 09:00:06;;;;;;;55.92;23.10;;;9.30;99.90;;;;;;5075258;28;20078;-79
2022/11/12 09:02:52;;;;;;;55.38;23.55;;;9.30;99.90;;;;;;5073710;28;20051;-79
2022/11/12 09:05:38;;;;;;;52.30;23.15;;;9.40;99.90;;;;;;5072164;28;20079;-79
2022/11/12 09:08:24;;;;;;;55.90;23.67;;;9.40;99.90;;;;;;5082174;28;20055;-79
2022/11/12 09:11:10;;;;;;;55.30;22.42;;;9.50;99.90;;;;;;5077122;28;22911;-79
2022/11/12 09:13:56;;;;;;;56.28;22.77;;;9.70;99.90;;;;;;5079421;28;20055;-80
2022/11/12 09:16:42;;;;;;;58.67;24.20;;;9.80;99.90;;;;;;5083642;28;20174;-79
2022/11/12 09:19:27;;;;;;;58.47;22.13;;;9.80;99.90;;;;;;5075688;28;21032;-80
2022/11/12 09:22:13;;;;;;;54.47;22.75;;;9.90;99.90;;;;;;5073309;28;20051;-80
2022/11/12 09:24:58;;;;;;;59.55;24.30;;;10.00;99.90;;;;;;5080784;28;20509;-80
2022/11/12 09:27:44;;;;;;;57.25;23.92;;;10.20;99.90;;;;;;5080029;28;20414;-80
2022/11/12 09:30:33;;;;;;;60.50;23.08;;;10.30;99.90;;;;;;5076037;28;20047;-79
2022/11/12 09:33:25;;;;;;;52.58;22.90;;;10.40;99.90;;;;;;5075795;28;20094;-79
2022/11/12 09:36:11;;;;;;;60.90;26.23;;;10.60;99.90;;;;;;5078377;28;20047;-79
2022/11/12 09:38:57;;;;;;;56.65;24.98;;;10.70;99.90;;;;;;5083686;28;20274;-79
2022/11/12 09:41:42;;;;;;;64.68;26.00;;;10.80;99.90;;;;;;5078925;28;20047;-79
2022/11/12 09:44:29;;;;;;;56.88;23.20;;;10.90;99.90;;;;;;5074330;28;20052;-79
2022/11/12 09:47:26;;;;;;;56.88;25.50;;;11.00;99.90;;;;;;5076613;28;20051;-79
2022/11/12 09:50:37;;;;;;;53.22;23.45;;;11.10;99.90;;;;;;5072321;28;20098;-79
2022/11/12 09:53:59;;;;;;;49.97;22.65;;;11.20;99.90;;;;;;5076978;28;20051;-79
2022/11/12 09:56:48;;;;;;;50.97;21.83;;;11.10;99.90;;;;;;5066560;28;20051;-79
2022/11/12 09:59:39;;;;;;;50.40;22.08;;;11.30;99.90;;;;;;5075605;28;20064;-80
2022/11/12 10:02:35;;;;;;;41.15;18.92;;;11.40;99.90;;;;;;5084443;28;20795;-80
2022/11/12 10:05:46;;;;;;;43.60;20.27;;;11.60;99.90;;;;;;5084332;28;20047;-79
2022/11/12 10:09:15;;;;;;;38.92;18.90;;;11.70;99.90;;;;;;5078301;28;20047;-80
2022/11/12 10:12:32;;;;;;;47.88;20.80;;;11.70;99.90;;;;;;5086266;28;20509;-80
2022/11/12 10:19:09;;;;;;;52.17;23.50;;;11.90;99.90;;;;;;5076794;28;20052;-80
2022/11/12 10:22:16;;;;;;;45.50;21.58;;;12.00;99.90;;;;;;5080980;28;20079;-80
2022/11/12 10:25:16;;;;;;;39.83;19.05;;;12.10;99.90;;;;;;5082860;28;20512;-80
2022/11/12 10:28:37;;;;;;;38.17;17.52;;;12.20;99.90;;;;;;5081054;28;20054;-80
2022/11/12 10:31:23;;;;;;;39.53;17.48;;;12.30;99.90;;;;;;5075570;28;20050;-80
2022/11/12 10:34:12;;;;;;;34.50;16.23;;;12.50;99.90;;;;;;5080861;28;20510;-80
2022/11/12 10:37:11;;;;;;;35.42;16.95;;;12.50;99.90;;;;;;5084591;28;20050;-80
2022/11/12 10:39:57;;;;;;;34.85;15.00;;;12.40;99.90;;;;;;5081989;28;20399;-79
2022/11/12 10:42:57;;;;;;;33.92;15.32;;;12.50;99.90;;;;;;5076152;28;20179;-80
2022/11/12 10:45:45;;;;;;;27.30;13.90;;;12.40;99.90;;;;;;5092390;28;20403;-80
2022/11/12 10:48:32;;;;;;;29.08;14.05;;;12.40;99.90;;;;;;5079712;28;20051;-79
2022/11/12 10:51:25;;;;;;;37.35;17.67;;;12.50;99.90;;;;;;5083724;28;20418;-80
2022/11/12 10:54:34;;;;;;;33.75;15.85;;;12.60;99.90;;;;;;5081210;28;20059;-80
2022/11/12 10:57:23;;;;;;;33.42;16.25;;;12.50;99.90;;;;;;5078812;28;20044;-79
2022/11/12 11:00:12;;;;;;;33.20;16.02;;;12.60;99.90;;;;;;5077435;28;20489;-80
2022/11/12 11:02:59;;;;;;;29.75;15.60;;;12.60;99.90;;;;;;5081332;28;20258;-79
2022/11/12 11:05:57;;;;;;;34.30;16.13;;;12.60;99.90;;;;;;5079645;28;20043;-80
2022/11/12 11:08:49;;;;;;;28.67;13.70;;;12.70;99.90;;;;;;5077544;28;20235;-80
2022/11/12 11:11:34;;;;;;;26.67;11.82;;;12.80;99.90;;;;;;5080131;28;20064;-80
2022/11/12 11:14:27;;;;;;;34.53;13.30;;;12.80;99.90;;;;;;5075286;28;20052;-80
2022/11/12 11:17:17;;;;;;;;;;;12.90;99.90;;;;;;5083352;28;20177;-80
2022/11/12 11:20:24;;;;;;;22.92;11.98;;;12.90;99.90;;;;;;5080246;28;19927;-79
2022/11/12 11:23:19;;;;;;;23.50;11.15;;;12.80;99.90;;;;;;5075561;28;20122;-80
2022/11/12 11:26:48;;;;;;;22.10;11.25;;;12.60;99.90;;;;;;5087576;28;20043;-80
2022/11/12 11:29:43;;;;;;;28.15;10.75;;;12.50;99.90;;;;;;5079760;28;20635;-80
2022/11/12 11:32:49;;;;;;;25.02;12.10;;;12.40;99.90;;;;;;5078843;28;20162;-80
2022/11/12 11:36:07;;;;;;;28.83;10.98;;;12.50;99.90;;;;;;5082665;28;20047;-79
2022/11/12 11:39:01;;;;;;;28.08;13.43;;;12.50;99.90;;;;;;5068053;28;20199;-80
2022/11/12 11:42:06;;;;;;;31.55;14.88;;;12.40;99.90;;;;;;5084179;28;20414;-80
2022/11/12 11:45:20;;;;;;;30.55;14.95;;;12.40;99.90;;;;;;5083251;28;20055;-80
2022/11/12 11:48:24;;;;;;;25.30;11.75;;;12.40;99.90;;;;;;5076392;28;20059;-80
2022/11/12 11:51:26;;;;;;;32.22;15.00;;;12.40;99.90;;;;;;5080281;28;20121;-80
2022/11/12 11:54:44;;;;;;;25.83;13.35;;;12.40;99.90;;;;;;5081992;28;20051;-80
2022/11/12 11:57:55;;;;;;;30.15;14.32;;;12.50;99.90;;;;;;5068107;28;20098;-80
2022/11/12 12:00:44;;;;;;;34.08;13.48;;;12.50;99.90;;;;;;5084477;28;20056;-80
2022/11/12 12:04:14;;;;;;;33.22;16.00;;;12.50;99.90;;;;;;5078221;28;20170;-80
2022/11/12 12:07:11;;;;;;;36.38;15.70;;;12.40;99.90;;;;;;5070642;28;20518;-80
2022/11/12 12:10:16;;;;;;;29.35;14.63;;;12.40;99.90;;;;;;5083020;28;20048;-79
2022/11/12 12:13:08;;;;;;;34.20;15.57;;;12.30;99.90;;;;;;5076987;28;20047;-80
2022/11/12 12:15:59;;;;;;;34.28;16.50;;;12.20;99.90;;;;;;5080150;28;20063;-80
2022/11/12 12:19:20;;;;;;;28.90;14.85;;;12.20;99.90;;;;;;5083990;28;20097;-80
2022/11/12 12:22:13;;;;;;;32.92;15.05;;;12.20;99.90;;;;;;5099027;28;20047;-80
2022/11/12 12:25:09;;;;;;;31.40;15.82;;;12.30;99.90;;;;;;5085077;28;20039;-80
2022/11/12 12:28:03;;;;;;;37.33;16.13;;;12.30;99.90;;;;;;5075681;28;20105;-80
2022/11/12 12:30:56;;;;;;;30.98;15.43;;;12.40;99.90;;;;;;5075501;28;20043;-80
2022/11/12 12:33:45;;;;;;;35.30;16.88;;;12.30;99.90;;;;;;5082362;28;20066;-80
2022/11/12 12:36:37;;;;;;;30.88;15.32;;;12.30;99.90;;;;;;5081525;28;21037;-80
2022/11/12 12:39:43;;;;;;;33.97;16.52;;;12.30;99.90;;;;;;5079284;28;20048;-79
2022/11/12 12:42:44;;;;;;;33.97;16.70;;;12.40;99.90;;;;;;5084496;28;20537;-80
2022/11/12 12:45:33;;;;;;;34.33;16.88;;;12.40;99.90;;;;;;5076884;28;20047;-80
2022/11/12 12:48:27;;;;;;;36.58;16.73;;;12.40;99.90;;;;;;5084052;28;20055;-80
2022/11/12 12:51:13;;;;;;;;;;;12.40;99.90;;;;;;5073721;28;20498;-80
2022/11/12 12:53:59;;;;;;;36.70;17.17;;;12.30;99.90;;;;;;5078176;28;20393;-80
2022/11/12 12:56:47;;;;;;;33.67;16.05;;;12.40;99.90;;;;;;5078942;28;20042;-80
2022/11/12 12:59:33;;;;;;;32.67;17.05;;;12.40;99.90;;;;;;5081087;28;20089;-80
2022/11/12 13:02:24;;;;;;;37.92;18.13;;;12.40;99.90;;;;;;5079311;28;20436;-80
2022/11/12 13:05:31;;;;;;;28.33;13.90;;;12.40;99.90;;;;;;5078752;28;20074;-80
2022/11/12 13:08:23;;;;;;;39.75;16.52;;;12.40;99.90;;;;;;5083380;28;20120;-80
2022/11/12 13:12:20;;;;;;;;;;;12.40;99.90;;;;;;5077321;28;20063;-80
2022/11/12 13:14:38;;;;;;;36.78;15.65;;;12.40;99.90;;;;;;5083848;28;19942;-79
2022/11/12 13:17:45;;;;;;;34.90;16.73;;;12.40;99.90;;;;;;5082490;28;20077;-79
2022/11/12 13:20:34;;;;;;;42.63;17.20;;;12.40;99.90;;;;;;5080211;28;20066;-80
2022/11/12 13:26:54;;;;;;;32.05;15.93;;;12.40;99.90;;;;;;5082450;28;20142;-80
2022/11/12 13:29:41;;;;;;;29.30;15.48;;;12.40;99.90;;;;;;5080220;28;20087;-80
2022/11/12 13:32:34;;;;;;;33.13;14.75;;;12.40;99.90;;;;;;5081231;28;20145;-80
2022/11/12 13:35:33;;;;;;;36.15;17.23;;;12.40;99.90;;;;;;5084394;28;21843;-80
2022/11/12 13:38:19;;;;;;;34.60;17.08;;;12.40;99.90;;;;;;5075183;28;20043;-80
2022/11/12 13:41:16;;;;;;;35.22;17.38;;;12.30;99.90;;;;;;5079660;28;20143;-80
2022/11/12 13:44:06;;;;;;;39.60;17.20;;;12.30;99.90;;;;;;5084667;28;20073;-80
2022/11/12 13:46:54;;;;;;;32.75;15.63;;;12.30;99.90;;;;;;5083831;28;20165;-81
2022/11/12 13:49:42;;;;;;;40.13;17.58;;;12.30;99.90;;;;;;5092143;28;20063;-81
2022/11/12 13:52:28;;;;;;;38.85;16.73;;;12.30;99.90;;;;;;5094274;28;20093;-81
2022/11/12 13:55:20;;;;;;;34.80;15.95;;;12.20;99.90;;;;;;5088820;28;20063;-81
2022/11/12 13:58:29;;;;;;;34.33;16.75;;;12.20;99.90;;;;;;5090962;28;20086;-81
2022/11/12 14:01:19;;;;;;;32.95;15.73;;;12.20;99.90;;;;;;5095700;28;20051;-81
2022/11/12 14:04:09;;;;;;;44.40;18.80;;;12.20;99.90;;;;;;5097361;28;20113;-81
2022/11/12 14:07:26;;;;;;;68.18;27.38;;;12.20;99.90;;;;;;5091500;28;20048;-81
2022/11/12 14:10:50;;;;;;;61.28;26.23;;;12.20;99.90;;;;;;5080607;28;20054;-81
2022/11/12 14:14:07;;;;;;;47.85;19.58;;;12.10;99.90;;;;;;5087806;28;20039;-81
2022/11/12 14:17:14;;;;;;;44.97;19.80;;;12.10;99.90;;;;;;5086611;28;20399;-81
2022/11/12 14:20:06;;;;;;;33.30;16.15;;;12.10;99.90;;;;;;5082317;28;20143;-81
2022/11/12 14:22:53;;;;;;;31.92;16.73;;;12.00;99.90;;;;;;5097894;28;20132;-81
2022/11/12 14:25:53;;;;;;;35.13;16.77;;;12.00;99.90;;;;;;5089915;28;20137;-81
2022/11/12 14:28:39;;;;;;;29.83;14.60;;;12.00;99.90;;;;;;5089815;28;20411;-81
2022/11/12 14:31:25;;;;;;;32.88;14.63;;;12.00;99.90;;;;;;5091917;28;20086;-81
2022/11/12 14:34:40;;;;;;;32.63;15.52;;;11.90;99.90;;;;;;5091130;28;20054;-81
2022/11/12 14:37:36;;;;;;;27.23;14.02;;;11.90;99.90;;;;;;5087087;28;20068;-81
2022/11/12 14:40:29;;;;;;;36.85;15.60;;;11.90;99.90;;;;;;5097682;28;20055;-81
2022/11/12 14:43:41;;;;;;;51.85;23.38;;;11.90;99.90;;;;;;5091696;28;20135;-81
2022/11/12 14:46:46;;;;;;;42.40;20.25;;;11.90;99.90;;;;;;5093228;28;20090;-81
2022/11/12 14:49:43;;;;;;;39.58;18.88;;;11.80;99.90;;;;;;5090771;28;20059;-81
2022/11/12 14:52:35;;;;;;;39.70;16.60;;;11.70;99.90;;;;;;5094834;28;20047;-81
2022/11/12 14:55:26;;;;;;;32.83;15.52;;;11.70;99.90;;;;;;5095660;28;20055;-81
2022/11/12 14:58:15;;;;;;;28.67;15.45;;;11.70;99.90;;;;;;5085137;28;20047;-80
2022/11/12 15:01:28;;;;;;;29.52;14.82;;;11.60;99.90;;;;;;5080761;28;20048;-80